sensor_id;sensor_type;location;lat;lon;timestamp;pressure;altitude;pressure_sealevel;temperature;humidity
66430;BME280;53242;51.694;10.006;2023-04-19T00:01:18;100644.91;;;10.18;60.56
66430;BME280;53242;51.694;10.006;2023-04-19T00:03:41;100633.88;;;10.23;60.67
66430;BME280;53242;51.694;10.006;2023-04-19T00:06:03;100638.66;;;10.19;60.75
66430;BME280;53242;51.694;10.006;2023-04-19T00:08:26;100641.78;;;10.23;60.32
66430;BME280;53242;51.694;10.006;2023-04-19T00:10:48;100629.75;;;10.20;60.61
66430;BME280;53242;51.694;10.006;2023-04-19T00:13:11;100631.41;;;10.30;60.44
66430;BME280;53242;51.694;10.006;2023-04-19T00:15:33;100620.03;;;10.29;60.01
66430;BME280;53242;51.694;10.006;2023-04-19T00:17:56;100626.31;;;10.36;59.99
66430;BME280;53242;51.694;10.006;2023-04-19T00:20:19;100626.63;;;10.33;59.98
66430;BME280;53242;51.694;10.006;2023-04-19T00:22:42;100627.44;;;10.34;60.00
66430;BME280;53242;51.694;10.006;2023-04-19T00:25:05;100631.72;;;10.35;60.13
66430;BME280;53242;51.694;10.006;2023-04-19T00:27:27;100626.00;;;10.40;60.28
66430;BME280;53242;51.694;10.006;2023-04-19T00:29:50;100630.13;;;10.42;60.68
66430;BME280;53242;51.694;10.006;2023-04-19T00:32:12;100631.22;;;10.31;61.52
66430;BME280;53242;51.694;10.006;2023-04-19T00:34:34;100622.66;;;10.21;62.50
66430;BME280;53242;51.694;10.006;2023-04-19T00:36:57;100619.38;;;10.19;62.97
66430;BME280;53242;51.694;10.006;2023-04-19T00:39:19;100622.00;;;10.19;62.84
66430;BME280;53242;51.694;10.006;2023-04-19T00:41:42;100619.19;;;10.20;63.07
66430;BME280;53242;51.694;10.006;2023-04-19T00:44:04;100625.13;;;10.06;63.94
66430;BME280;53242;51.694;10.006;2023-04-19T00:46:28;100621.13;;;10.02;64.02
66430;BME280;53242;51.694;10.006;2023-04-19T00:48:51;100627.44;;;10.01;64.13
66430;BME280;53242;51.694;10.006;2023-04-19T00:51:14;100621.94;;;9.86;64.92
66430;BME280;53242;51.694;10.006;2023-04-19T00:53:37;100619.66;;;9.83;65.40
66430;BME280;53242;51.694;10.006;2023-04-19T00:56:01;100615.66;;;9.79;65.75
66430;BME280;53242;51.694;10.006;2023-04-19T00:58:25;100613.50;;;9.66;66.42
66430;BME280;53242;51.694;10.006;2023-04-19T01:00:51;100611.69;;;9.66;66.27
66430;BME280;53242;51.694;10.006;2023-04-19T01:03:15;100606.25;;;9.60;66.32
66430;BME280;53242;51.694;10.006;2023-04-19T01:05:38;100603.28;;;9.63;66.10
66430;BME280;53242;51.694;10.006;2023-04-19T01:08:01;100615.94;;;9.59;66.01
66430;BME280;53242;51.694;10.006;2023-04-19T01:10:24;100609.88;;;9.59;66.16
66430;BME280;53242;51.694;10.006;2023-04-19T01:12:46;100607.06;;;9.60;65.95
66430;BME280;53242;51.694;10.006;2023-04-19T01:15:09;100602.94;;;9.66;65.75
66430;BME280;53242;51.694;10.006;2023-04-19T01:17:31;100610.84;;;9.49;65.97
66430;BME280;53242;51.694;10.006;2023-04-19T01:19:58;100605.22;;;9.52;65.67
66430;BME280;53242;51.694;10.006;2023-04-19T01:22:21;100606.84;;;9.45;65.26
66430;BME280;53242;51.694;10.006;2023-04-19T01:24:46;100610.16;;;9.47;65.09
66430;BME280;53242;51.694;10.006;2023-04-19T01:27:08;100602.25;;;9.47;64.82
66430;BME280;53242;51.694;10.006;2023-04-19T01:29:31;100596.28;;;9.37;64.66
66430;BME280;53242;51.694;10.006;2023-04-19T01:31:53;100607.84;;;9.44;64.36
66430;BME280;53242;51.694;10.006;2023-04-19T01:34:16;100612.06;;;9.29;64.63
66430;BME280;53242;51.694;10.006;2023-04-19T01:36:38;100606.00;;;9.36;63.80
66430;BME280;53242;51.694;10.006;2023-04-19T01:39:01;100597.53;;;9.16;64.24
66430;BME280;53242;51.694;10.006;2023-04-19T01:41:24;100590.44;;;9.17;64.14
66430;BME280;53242;51.694;10.006;2023-04-19T01:43:48;100592.94;;;9.27;64.31
66430;BME280;53242;51.694;10.006;2023-04-19T01:46:10;100598.50;;;9.15;64.70
66430;BME280;53242;51.694;10.006;2023-04-19T01:48:33;100588.44;;;9.11;64.74
66430;BME280;53242;51.694;10.006;2023-04-19T01:50:56;100592.50;;;8.97;65.03
66430;BME280;53242;51.694;10.006;2023-04-19T01:53:18;100586.53;;;8.95;64.68
66430;BME280;53242;51.694;10.006;2023-04-19T01:55:41;100585.38;;;8.89;64.32
66430;BME280;53242;51.694;10.006;2023-04-19T01:58:03;100585.19;;;8.82;64.35
66430;BME280;53242;51.694;10.006;2023-04-19T02:00:26;100583.47;;;8.73;64.09
66430;BME280;53242;51.694;10.006;2023-04-19T02:02:48;100577.63;;;8.61;64.31
66430;BME280;53242;51.694;10.006;2023-04-19T02:05:11;100577.34;;;8.64;64.02
66430;BME280;53242;51.694;10.006;2023-04-19T02:07:33;100571.84;;;8.58;64.15
66430;BME280;53242;51.694;10.006;2023-04-19T02:09:56;100574.81;;;8.54;64.01
66430;BME280;53242;51.694;10.006;2023-04-19T02:12:20;100575.94;;;8.52;63.71
66430;BME280;53242;51.694;10.006;2023-04-19T02:14:43;100581.22;;;8.34;63.92
66430;BME280;53242;51.694;10.006;2023-04-19T02:17:05;100580.88;;;8.37;64.18
66430;BME280;53242;51.694;10.006;2023-04-19T02:19:28;100582.13;;;8.25;64.67
66430;BME280;53242;51.694;10.006;2023-04-19T02:21:50;100585.41;;;8.27;64.32
66430;BME280;53242;51.694;10.006;2023-04-19T02:24:14;100592.81;;;8.05;63.68
66430;BME280;53242;51.694;10.006;2023-04-19T02:26:38;100601.56;;;8.14;62.70
66430;BME280;53242;51.694;10.006;2023-04-19T02:29:01;100593.56;;;7.97;62.50
66430;BME280;53242;51.694;10.006;2023-04-19T02:31:23;100603.00;;;7.90;61.69
66430;BME280;53242;51.694;10.006;2023-04-19T02:33:46;100599.84;;;7.86;62.04
66430;BME280;53242;51.694;10.006;2023-04-19T02:36:08;100598.56;;;7.90;61.46
66430;BME280;53242;51.694;10.006;2023-04-19T02:38:31;100592.19;;;7.75;60.66
66430;BME280;53242;51.694;10.006;2023-04-19T02:40:53;100600.75;;;7.77;60.32
66430;BME280;53242;51.694;10.006;2023-04-19T02:43:16;100600.28;;;7.82;60.11
66430;BME280;53242;51.694;10.006;2023-04-19T02:45:39;100604.56;;;7.65;60.05
66430;BME280;53242;51.694;10.006;2023-04-19T02:48:02;100600.63;;;7.51;59.64
66430;BME280;53242;51.694;10.006;2023-04-19T02:50:25;100606.34;;;7.46;59.63
66430;BME280;53242;51.694;10.006;2023-04-19T02:52:48;100605.63;;;7.44;59.84
66430;BME280;53242;51.694;10.006;2023-04-19T02:55:11;100604.72;;;7.35;60.04
66430;BME280;53242;51.694;10.006;2023-04-19T02:57:33;100603.25;;;7.23;59.77
66430;BME280;53242;51.694;10.006;2023-04-19T02:59:56;100610.91;;;7.16;59.40
66430;BME280;53242;51.694;10.006;2023-04-19T03:02:18;100610.78;;;7.08;59.55
66430;BME280;53242;51.694;10.006;2023-04-19T03:04:41;100611.66;;;6.99;59.89
66430;BME280;53242;51.694;10.006;2023-04-19T03:07:05;100601.16;;;6.99;59.75
66430;BME280;53242;51.694;10.006;2023-04-19T03:09:28;100605.13;;;7.03;59.95
66430;BME280;53242;51.694;10.006;2023-04-19T03:11:50;100601.47;;;6.86;60.24
66430;BME280;53242;51.694;10.006;2023-04-19T03:14:13;100602.50;;;7.03;59.85
66430;BME280;53242;51.694;10.006;2023-04-19T03:16:35;100607.53;;;6.86;60.46
66430;BME280;53242;51.694;10.006;2023-04-19T03:18:59;100599.56;;;6.78;60.55
66430;BME280;53242;51.694;10.006;2023-04-19T03:21:25;100606.63;;;6.68;60.50
66430;BME280;53242;51.694;10.006;2023-04-19T03:23:49;100600.25;;;6.80;60.51
66430;BME280;53242;51.694;10.006;2023-04-19T03:26:12;100596.69;;;6.62;60.01
66430;BME280;53242;51.694;10.006;2023-04-19T03:28:39;100597.69;;;6.41;60.85
66430;BME280;53242;51.694;10.006;2023-04-19T03:31:21;100590.66;;;6.41;60.95
66430;BME280;53242;51.694;10.006;2023-04-19T03:33:46;100575.91;;;6.40;60.91
66430;BME280;53242;51.694;10.006;2023-04-19T03:36:09;100579.78;;;6.36;61.39
66430;BME280;53242;51.694;10.006;2023-04-19T03:38:32;100579.06;;;6.24;61.82
66430;BME280;53242;51.694;10.006;2023-04-19T03:40:55;100580.75;;;6.16;61.88
66430;BME280;53242;51.694;10.006;2023-04-19T03:43:19;100586.97;;;6.15;61.65
66430;BME280;53242;51.694;10.006;2023-04-19T03:45:42;100590.38;;;6.15;61.81
66430;BME280;53242;51.694;10.006;2023-04-19T03:48:04;100583.38;;;6.06;61.46
66430;BME280;53242;51.694;10.006;2023-04-19T03:50:27;100581.56;;;6.16;61.38
66430;BME280;53242;51.694;10.006;2023-04-19T03:52:51;100585.69;;;6.09;61.70
66430;BME280;53242;51.694;10.006;2023-04-19T03:55:13;100584.06;;;6.08;61.99
66430;BME280;53242;51.694;10.006;2023-04-19T03:57:36;100568.59;;;6.05;62.22
66430;BME280;53242;51.694;10.006;2023-04-19T04:00:09;100570.22;;;5.96;62.72
66430;BME280;53242;51.694;10.006;2023-04-19T04:02:44;100563.75;;;5.90;63.28
66430;BME280;53242;51.694;10.006;2023-04-19T04:05:08;100569.28;;;5.87;63.54
66430;BME280;53242;51.694;10.006;2023-04-19T04:07:32;100566.63;;;5.78;63.60
66430;BME280;53242;51.694;10.006;2023-04-19T04:09:54;100574.47;;;5.68;64.08
66430;BME280;53242;51.694;10.006;2023-04-19T04:12:16;100580.97;;;5.83;63.57
66430;BME280;53242;51.694;10.006;2023-04-19T04:14:39;100586.75;;;5.67;64.07
66430;BME280;53242;51.694;10.006;2023-04-19T04:17:02;100588.00;;;5.63;64.16
66430;BME280;53242;51.694;10.006;2023-04-19T04:19:25;100584.16;;;5.77;63.51
66430;BME280;53242;51.694;10.006;2023-04-19T04:21:47;100588.69;;;5.75;63.22
66430;BME280;53242;51.694;10.006;2023-04-19T04:24:11;100580.22;;;5.42;63.87
66430;BME280;53242;51.694;10.006;2023-04-19T04:26:55;100588.84;;;5.73;63.36
66430;BME280;53242;51.694;10.006;2023-04-19T04:29:21;100587.56;;;5.58;63.46
66430;BME280;53242;51.694;10.006;2023-04-19T04:31:45;100582.72;;;5.53;63.31
66430;BME280;53242;51.694;10.006;2023-04-19T04:34:09;100589.75;;;5.53;63.47
66430;BME280;53242;51.694;10.006;2023-04-19T04:36:38;100598.84;;;5.58;63.40
66430;BME280;53242;51.694;10.006;2023-04-19T04:39:02;100595.72;;;5.74;62.94
66430;BME280;53242;51.694;10.006;2023-04-19T04:41:26;100600.44;;;5.90;62.62
66430;BME280;53242;51.694;10.006;2023-04-19T04:43:51;100596.56;;;5.75;63.02
66430;BME280;53242;51.694;10.006;2023-04-19T04:46:17;100593.06;;;5.55;62.59
66430;BME280;53242;51.694;10.006;2023-04-19T04:48:40;100602.75;;;5.64;62.19
66430;BME280;53242;51.694;10.006;2023-04-19T04:51:03;100596.34;;;5.47;62.44
66430;BME280;53242;51.694;10.006;2023-04-19T04:53:26;100604.22;;;5.57;62.31
66430;BME280;53242;51.694;10.006;2023-04-19T04:55:48;100610.19;;;5.59;61.96
66430;BME280;53242;51.694;10.006;2023-04-19T04:58:10;100600.91;;;5.45;62.62
66430;BME280;53242;51.694;10.006;2023-04-19T05:00:59;100609.56;;;5.46;62.75
66430;BME280;53242;51.694;10.006;2023-04-19T05:03:23;100604.91;;;5.49;62.39
66430;BME280;53242;51.694;10.006;2023-04-19T05:05:52;100607.94;;;5.54;62.55
66430;BME280;53242;51.694;10.006;2023-04-19T05:08:14;100605.47;;;5.63;62.17
66430;BME280;53242;51.694;10.006;2023-04-19T05:10:37;100610.22;;;5.79;61.45
66430;BME280;53242;51.694;10.006;2023-04-19T05:13:00;100605.22;;;5.75;61.39
66430;BME280;53242;51.694;10.006;2023-04-19T05:15:23;100609.00;;;5.92;61.36
66430;BME280;53242;51.694;10.006;2023-04-19T05:17:49;100605.97;;;6.17;60.77
66430;BME280;53242;51.694;10.006;2023-04-19T05:20:12;100605.38;;;5.93;61.37
66430;BME280;53242;51.694;10.006;2023-04-19T05:22:36;100604.44;;;5.95;61.12
66430;BME280;53242;51.694;10.006;2023-04-19T05:24:59;100620.25;;;5.83;61.38
66430;BME280;53242;51.694;10.006;2023-04-19T05:27:22;100603.59;;;5.94;61.03
66430;BME280;53242;51.694;10.006;2023-04-19T05:29:44;100610.53;;;6.05;60.85
66430;BME280;53242;51.694;10.006;2023-04-19T05:32:07;100609.53;;;5.86;61.47
66430;BME280;53242;51.694;10.006;2023-04-19T05:34:36;100608.16;;;5.92;61.15
66430;BME280;53242;51.694;10.006;2023-04-19T05:36:59;100603.78;;;6.12;60.92
66430;BME280;53242;51.694;10.006;2023-04-19T05:39:21;100601.72;;;6.16;60.99
66430;BME280;53242;51.694;10.006;2023-04-19T05:41:44;100596.47;;;6.06;61.40
66430;BME280;53242;51.694;10.006;2023-04-19T05:44:06;100605.84;;;5.99;61.48
66430;BME280;53242;51.694;10.006;2023-04-19T05:46:29;100598.81;;;6.09;61.69
66430;BME280;53242;51.694;10.006;2023-04-19T05:48:52;100608.63;;;6.07;61.51
66430;BME280;53242;51.694;10.006;2023-04-19T05:51:33;100596.34;;;6.17;61.63
66430;BME280;53242;51.694;10.006;2023-04-19T05:54:02;100608.75;;;6.25;61.61
66430;BME280;53242;51.694;10.006;2023-04-19T05:56:24;100602.53;;;6.46;61.14
66430;BME280;53242;51.694;10.006;2023-04-19T05:58:48;100605.56;;;6.41;61.21
66430;BME280;53242;51.694;10.006;2023-04-19T06:01:11;100604.47;;;6.34;61.14
66430;BME280;53242;51.694;10.006;2023-04-19T06:03:33;100609.41;;;6.56;60.52
66430;BME280;53242;51.694;10.006;2023-04-19T06:05:56;100601.78;;;6.73;60.05
66430;BME280;53242;51.694;10.006;2023-04-19T06:08:19;100611.16;;;6.75;59.35
66430;BME280;53242;51.694;10.006;2023-04-19T06:10:42;100604.00;;;7.15;57.91
66430;BME280;53242;51.694;10.006;2023-04-19T06:13:05;100607.44;;;7.16;57.94
66430;BME280;53242;51.694;10.006;2023-04-19T06:15:28;100599.06;;;7.30;57.99
66430;BME280;53242;51.694;10.006;2023-04-19T06:17:52;100600.16;;;7.37;57.54
66430;BME280;53242;51.694;10.006;2023-04-19T06:20:14;100600.00;;;7.39;57.29
66430;BME280;53242;51.694;10.006;2023-04-19T06:22:44;100611.72;;;7.17;58.69
66430;BME280;53242;51.694;10.006;2023-04-19T06:25:07;100613.78;;;7.13;59.23
66430;BME280;53242;51.694;10.006;2023-04-19T06:27:29;100612.84;;;7.42;58.75
66430;BME280;53242;51.694;10.006;2023-04-19T06:29:51;100611.94;;;7.33;58.98
66430;BME280;53242;51.694;10.006;2023-04-19T06:32:14;100615.94;;;7.55;58.56
66430;BME280;53242;51.694;10.006;2023-04-19T06:34:37;100617.00;;;7.45;58.95
66430;BME280;53242;51.694;10.006;2023-04-19T06:36:59;100618.59;;;7.55;58.73
66430;BME280;53242;51.694;10.006;2023-04-19T06:39:21;100613.25;;;7.47;58.69
66430;BME280;53242;51.694;10.006;2023-04-19T06:41:44;100615.59;;;7.68;58.39
66430;BME280;53242;51.694;10.006;2023-04-19T06:44:11;100613.31;;;7.83;58.08
66430;BME280;53242;51.694;10.006;2023-04-19T06:46:34;100613.31;;;7.83;58.19
66430;BME280;53242;51.694;10.006;2023-04-19T06:48:56;100615.34;;;8.07;57.11
66430;BME280;53242;51.694;10.006;2023-04-19T06:51:19;100617.22;;;7.97;57.28
66430;BME280;53242;51.694;10.006;2023-04-19T06:53:41;100618.19;;;8.14;57.57
66430;BME280;53242;51.694;10.006;2023-04-19T06:56:06;100613.69;;;8.25;56.74
66430;BME280;53242;51.694;10.006;2023-04-19T06:58:29;100603.97;;;8.25;56.86
66430;BME280;53242;51.694;10.006;2023-04-19T07:00:51;100598.50;;;8.18;56.75
66430;BME280;53242;51.694;10.006;2023-04-19T07:03:13;100610.22;;;8.24;57.02
66430;BME280;53242;51.694;10.006;2023-04-19T07:05:36;100605.78;;;8.43;56.52
66430;BME280;53242;51.694;10.006;2023-04-19T07:07:58;100600.06;;;8.29;56.82
66430;BME280;53242;51.694;10.006;2023-04-19T07:10:21;100595.13;;;8.08;56.88
66430;BME280;53242;51.694;10.006;2023-04-19T07:12:43;100590.75;;;8.53;55.76
66430;BME280;53242;51.694;10.006;2023-04-19T07:15:06;100600.88;;;8.66;55.45
66430;BME280;53242;51.694;10.006;2023-04-19T07:17:29;100594.00;;;8.73;54.86
66430;BME280;53242;51.694;10.006;2023-04-19T07:19:51;100593.44;;;8.61;54.83
66430;BME280;53242;51.694;10.006;2023-04-19T07:22:14;100578.94;;;8.57;54.23
66430;BME280;53242;51.694;10.006;2023-04-19T07:24:36;100583.94;;;8.68;54.05
66430;BME280;53242;51.694;10.006;2023-04-19T07:27:01;100576.78;;;8.79;53.61
66430;BME280;53242;51.694;10.006;2023-04-19T07:29:23;100572.44;;;9.04;53.47
66430;BME280;53242;51.694;10.006;2023-04-19T07:31:46;100563.44;;;9.15;52.87
66430;BME280;53242;51.694;10.006;2023-04-19T07:34:08;100571.94;;;9.43;52.71
66430;BME280;53242;51.694;10.006;2023-04-19T07:36:31;100566.84;;;9.50;51.59
66430;BME280;53242;51.694;10.006;2023-04-19T07:38:56;100555.16;;;9.61;51.17
66430;BME280;53242;51.694;10.006;2023-04-19T07:41:18;100549.88;;;9.44;50.25
66430;BME280;53242;51.694;10.006;2023-04-19T07:43:41;100557.63;;;9.54;49.85
66430;BME280;53242;51.694;10.006;2023-04-19T07:46:11;100548.22;;;9.51;48.44
66430;BME280;53242;51.694;10.006;2023-04-19T07:48:33;100546.31;;;9.95;48.41
66430;BME280;53242;51.694;10.006;2023-04-19T07:50:56;100546.78;;;9.57;48.20
66430;BME280;53242;51.694;10.006;2023-04-19T07:53:28;100546.91;;;9.47;48.49
66430;BME280;53242;51.694;10.006;2023-04-19T07:55:51;100554.13;;;9.45;48.92
66430;BME280;53242;51.694;10.006;2023-04-19T07:58:13;100545.75;;;9.50;49.05
66430;BME280;53242;51.694;10.006;2023-04-19T08:00:36;100542.00;;;9.77;47.89
66430;BME280;53242;51.694;10.006;2023-04-19T08:02:59;100536.28;;;9.98;47.09
66430;BME280;53242;51.694;10.006;2023-04-19T08:05:22;100535.94;;;9.93;46.77
66430;BME280;53242;51.694;10.006;2023-04-19T08:07:44;100533.78;;;10.22;46.59
66430;BME280;53242;51.694;10.006;2023-04-19T08:10:07;100536.75;;;10.27;46.69
66430;BME280;53242;51.694;10.006;2023-04-19T08:12:30;100530.50;;;10.36;44.28
66430;BME280;53242;51.694;10.006;2023-04-19T08:14:52;100527.69;;;10.38;43.60
66430;BME280;53242;51.694;10.006;2023-04-19T08:17:15;100525.84;;;10.55;41.35
66430;BME280;53242;51.694;10.006;2023-04-19T08:19:41;100531.44;;;10.60;41.16
66430;BME280;53242;51.694;10.006;2023-04-19T08:22:04;100531.28;;;10.53;40.52
66430;BME280;53242;51.694;10.006;2023-04-19T08:24:27;100529.94;;;10.57;40.60
66430;BME280;53242;51.694;10.006;2023-04-19T08:26:49;100527.13;;;10.67;41.05
66430;BME280;53242;51.694;10.006;2023-04-19T08:29:15;100527.63;;;10.62;39.63
66430;BME280;53242;51.694;10.006;2023-04-19T08:31:37;100524.00;;;10.63;40.13
66430;BME280;53242;51.694;10.006;2023-04-19T08:34:00;100534.56;;;10.72;41.62
66430;BME280;53242;51.694;10.006;2023-04-19T08:36:23;100530.59;;;10.76;41.93
66430;BME280;53242;51.694;10.006;2023-04-19T08:38:46;100520.78;;;10.93;41.37
66430;BME280;53242;51.694;10.006;2023-04-19T08:41:10;100524.47;;;10.75;41.59
66430;BME280;53242;51.694;10.006;2023-04-19T08:43:34;100520.72;;;10.61;42.26
66430;BME280;53242;51.694;10.006;2023-04-19T08:45:58;100520.59;;;10.46;42.04
66430;BME280;53242;51.694;10.006;2023-04-19T08:48:21;100519.25;;;10.98;40.58
66430;BME280;53242;51.694;10.006;2023-04-19T08:50:44;100519.53;;;10.72;39.39
66430;BME280;53242;51.694;10.006;2023-04-19T08:53:10;100513.50;;;10.95;39.59
66430;BME280;53242;51.694;10.006;2023-04-19T08:55:33;100511.47;;;10.65;39.39
66430;BME280;53242;51.694;10.006;2023-04-19T08:57:56;100517.38;;;10.76;39.35
66430;BME280;53242;51.694;10.006;2023-04-19T09:00:19;100521.97;;;10.82;39.11
66430;BME280;53242;51.694;10.006;2023-04-19T09:02:49;100511.88;;;10.94;39.81
66430;BME280;53242;51.694;10.006;2023-04-19T09:05:13;100523.50;;;10.60;39.47
66430;BME280;53242;51.694;10.006;2023-04-19T09:07:35;100519.50;;;10.80;40.04
66430;BME280;53242;51.694;10.006;2023-04-19T09:10:09;100512.47;;;10.64;41.20
66430;BME280;53242;51.694;10.006;2023-04-19T09:12:32;100505.50;;;11.11;41.55
66430;BME280;53242;51.694;10.006;2023-04-19T09:14:56;100509.47;;;11.15;41.63
66430;BME280;53242;51.694;10.006;2023-04-19T09:17:18;100506.84;;;11.07;42.28
66430;BME280;53242;51.694;10.006;2023-04-19T09:19:45;100511.34;;;11.30;41.64
66430;BME280;53242;51.694;10.006;2023-04-19T09:22:12;100508.91;;;11.28;41.57
66430;BME280;53242;51.694;10.006;2023-04-19T09:24:37;100495.72;;;11.20;41.04
66430;BME280;53242;51.694;10.006;2023-04-19T09:27:00;100492.75;;;11.15;40.81
66430;BME280;53242;51.694;10.006;2023-04-19T09:29:22;100497.78;;;11.33;40.28
66430;BME280;53242;51.694;10.006;2023-04-19T09:31:58;100500.22;;;11.43;39.93
66430;BME280;53242;51.694;10.006;2023-04-19T09:34:20;100499.00;;;11.22;40.52
66430;BME280;53242;51.694;10.006;2023-04-19T09:36:44;100504.13;;;11.24;39.66
66430;BME280;53242;51.694;10.006;2023-04-19T09:39:07;100498.19;;;11.45;40.02
66430;BME280;53242;51.694;10.006;2023-04-19T09:41:30;100495.44;;;11.38;40.63
66430;BME280;53242;51.694;10.006;2023-04-19T09:44:08;100499.22;;;11.12;40.69
66430;BME280;53242;51.694;10.006;2023-04-19T09:46:32;100496.69;;;11.19;40.98
66430;BME280;53242;51.694;10.006;2023-04-19T09:51:44;100482.63;;;11.27;40.79
66430;BME280;53242;51.694;10.006;2023-04-19T09:54:08;100483.50;;;11.65;40.53
66430;BME280;53242;51.694;10.006;2023-04-19T09:56:30;100487.28;;;11.48;40.40
66430;BME280;53242;51.694;10.006;2023-04-19T09:58:53;100474.84;;;11.57;40.91
66430;BME280;53242;51.694;10.006;2023-04-19T10:01:17;100474.09;;;11.63;41.28
66430;BME280;53242;51.694;10.006;2023-04-19T10:03:43;100470.88;;;11.52;41.14
66430;BME280;53242;51.694;10.006;2023-04-19T10:06:06;100469.97;;;11.45;41.36
66430;BME280;53242;51.694;10.006;2023-04-19T10:08:31;100461.47;;;11.50;41.33
66430;BME280;53242;51.694;10.006;2023-04-19T10:10:53;100456.59;;;11.85;40.86
66430;BME280;53242;51.694;10.006;2023-04-19T10:13:17;100453.41;;;11.90;40.16
66430;BME280;53242;51.694;10.006;2023-04-19T10:15:44;100449.66;;;11.84;39.82
66430;BME280;53242;51.694;10.006;2023-04-19T10:18:08;100451.03;;;11.80;39.01
66430;BME280;53242;51.694;10.006;2023-04-19T10:20:47;100449.91;;;11.74;39.59
66430;BME280;53242;51.694;10.006;2023-04-19T10:23:11;100447.34;;;11.66;39.22
66430;BME280;53242;51.694;10.006;2023-04-19T10:25:36;100439.69;;;11.71;39.37
66430;BME280;53242;51.694;10.006;2023-04-19T10:27:58;100434.53;;;11.93;38.94
66430;BME280;53242;51.694;10.006;2023-04-19T10:30:21;100444.91;;;11.79;37.87
66430;BME280;53242;51.694;10.006;2023-04-19T10:32:46;100427.91;;;11.97;38.22
66430;BME280;53242;51.694;10.006;2023-04-19T10:35:21;100434.09;;;12.04;39.37
66430;BME280;53242;51.694;10.006;2023-04-19T10:38:04;100423.56;;;11.81;37.87
66430;BME280;53242;51.694;10.006;2023-04-19T10:40:52;100424.28;;;12.28;37.73
66430;BME280;53242;51.694;10.006;2023-04-19T10:43:17;100425.19;;;12.50;37.17
66430;BME280;53242;51.694;10.006;2023-04-19T10:45:40;100414.41;;;12.22;36.98
66430;BME280;53242;51.694;10.006;2023-04-19T10:48:03;100416.25;;;12.21;37.13
66430;BME280;53242;51.694;10.006;2023-04-19T10:50:25;100411.88;;;12.43;36.34
66430;BME280;53242;51.694;10.006;2023-04-19T10:52:48;100411.75;;;12.52;37.46
66430;BME280;53242;51.694;10.006;2023-04-19T10:55:14;100407.25;;;12.67;36.96
66430;BME280;53242;51.694;10.006;2023-04-19T10:58:01;100390.75;;;12.87;36.31
66430;BME280;53242;51.694;10.006;2023-04-19T11:00:25;100396.41;;;12.98;36.51
66430;BME280;53242;51.694;10.006;2023-04-19T11:02:52;100375.03;;;12.63;36.33
66430;BME280;53242;51.694;10.006;2023-04-19T11:05:14;100384.59;;;12.64;34.29
66430;BME280;53242;51.694;10.006;2023-04-19T11:07:37;100380.03;;;12.73;35.30
66430;BME280;53242;51.694;10.006;2023-04-19T11:10:00;100365.56;;;12.91;35.25
66430;BME280;53242;51.694;10.006;2023-04-19T11:12:23;100368.38;;;12.89;33.77
66430;BME280;53242;51.694;10.006;2023-04-19T11:14:53;100357.41;;;13.14;33.12
66430;BME280;53242;51.694;10.006;2023-04-19T11:17:21;100356.06;;;13.25;33.59
66430;BME280;53242;51.694;10.006;2023-04-19T11:19:58;100343.22;;;13.22;32.73
66430;BME280;53242;51.694;10.006;2023-04-19T11:22:33;100347.50;;;12.79;31.51
66430;BME280;53242;51.694;10.006;2023-04-19T11:24:56;100338.66;;;12.72;32.33
66430;BME280;53242;51.694;10.006;2023-04-19T11:27:18;100344.28;;;12.62;32.58
66430;BME280;53242;51.694;10.006;2023-04-19T11:29:41;100331.66;;;12.86;32.76
66430;BME280;53242;51.694;10.006;2023-04-19T11:32:03;100341.06;;;13.10;32.58
66430;BME280;53242;51.694;10.006;2023-04-19T11:34:26;100340.16;;;12.81;31.78
66430;BME280;53242;51.694;10.006;2023-04-19T11:36:50;100330.91;;;12.71;31.48
66430;BME280;53242;51.694;10.006;2023-04-19T11:39:13;100322.56;;;12.52;31.73
66430;BME280;53242;51.694;10.006;2023-04-19T11:41:37;100334.44;;;12.78;31.72
66430;BME280;53242;51.694;10.006;2023-04-19T11:44:00;100316.69;;;12.57;30.74
66430;BME280;53242;51.694;10.006;2023-04-19T11:46:22;100305.84;;;12.52;31.19
66430;BME280;53242;51.694;10.006;2023-04-19T11:48:51;100308.78;;;12.78;31.49
66430;BME280;53242;51.694;10.006;2023-04-19T11:51:14;100316.13;;;12.61;32.25
66430;BME280;53242;51.694;10.006;2023-04-19T11:53:38;100316.06;;;12.76;32.47
66430;BME280;53242;51.694;10.006;2023-04-19T11:56:05;100311.72;;;12.69;32.79
66430;BME280;53242;51.694;10.006;2023-04-19T12:01:09;100315.50;;;12.59;33.17
66430;BME280;53242;51.694;10.006;2023-04-19T12:03:33;100307.38;;;12.82;33.80
66430;BME280;53242;51.694;10.006;2023-04-19T12:05:57;100315.09;;;12.41;34.62
66430;BME280;53242;51.694;10.006;2023-04-19T12:08:32;100304.97;;;12.29;34.56
66430;BME280;53242;51.694;10.006;2023-04-19T12:10:55;100304.91;;;12.23;34.71
66430;BME280;53242;51.694;10.006;2023-04-19T12:13:18;100309.09;;;12.32;34.90
66430;BME280;53242;51.694;10.006;2023-04-19T12:15:44;100300.63;;;12.22;34.97
66430;BME280;53242;51.694;10.006;2023-04-19T12:18:07;100296.13;;;12.22;35.19
66430;BME280;53242;51.694;10.006;2023-04-19T12:20:30;100295.88;;;12.17;35.18
66430;BME280;53242;51.694;10.006;2023-04-19T12:22:53;100290.22;;;12.20;35.30
66430;BME280;53242;51.694;10.006;2023-04-19T12:25:16;100283.88;;;12.73;35.41
66430;BME280;53242;51.694;10.006;2023-04-19T12:27:39;100280.25;;;12.59;34.85
66430;BME280;53242;51.694;10.006;2023-04-19T12:30:02;100287.44;;;12.43;35.03
66430;BME280;53242;51.694;10.006;2023-04-19T12:32:25;100268.03;;;12.58;35.03
66430;BME280;53242;51.694;10.006;2023-04-19T12:34:47;100273.09;;;12.38;35.20